Terminal Aerodrome Forecast
Issued by NWS Wilmington, OH

Current Version | Previous Version | Graphics & Text | Print | Product List | Glossary On
Versions: 1 2 3 4 5 6 7 8 9 10 11 12 13 14 15 16 17 18 19 20 21 22 23 24 25
000
FTUS41 KILN 121143
TAFCVG
TAF
KCVG 121143Z 1212/1318 30015G23KT 4SM -DZ BR OVC015
     FM121300 31016G24KT P6SM BKN022 OVC035
      TEMPO 1213/1215 3SM -SHSN
     FM121800 31017G25KT P6SM BKN040
     FM122300 30012KT P6SM SCT040
     FM130300 28007KT P6SM SKC
     FM131000 22005KT P6SM SCT100
     FM131400 19010KT P6SM BKN100=

USA.gov is the U.S. government's official web portal to all federal, state and local government web resources and services.